sensor_id;sensor_type;location;lat;lon;timestamp;P1;durP1;ratioP1;P2;durP2;ratioP2
26654;SDS011;14278;50.784;4.630;2022-10-16T00:02:06;0.33;;;0.33;;
26654;SDS011;14278;50.784;4.630;2022-10-16T00:04:32;0.30;;;0.30;;
26654;SDS011;14278;50.784;4.630;2022-10-16T00:06:57;0.60;;;0.50;;
26654;SDS011;14278;50.784;4.630;2022-10-16T00:09:24;0.50;;;0.27;;
26654;SDS011;14278;50.784;4.630;2022-10-16T00:11:50;0.57;;;0.47;;
26654;SDS011;14278;50.784;4.630;2022-10-16T00:14:16;0.20;;;0.20;;
26654;SDS011;14278;50.784;4.630;2022-10-16T00:16:42;0.30;;;0.30;;
26654;SDS011;14278;50.784;4.630;2022-10-16T00:19:09;0.40;;;0.40;;
26654;SDS011;14278;50.784;4.630;2022-10-16T00:21:37;0.37;;;0.37;;
26654;SDS011;14278;50.784;4.630;2022-10-16T00:24:05;1.37;;;0.37;;
26654;SDS011;14278;50.784;4.630;2022-10-16T00:26:34;0.40;;;0.40;;
26654;SDS011;14278;50.784;4.630;2022-10-16T00:29:01;1.13;;;0.40;;
26654;SDS011;14278;50.784;4.630;2022-10-16T00:31:28;0.30;;;0.30;;
26654;SDS011;14278;50.784;4.630;2022-10-16T00:33:55;0.20;;;0.20;;
26654;SDS011;14278;50.784;4.630;2022-10-16T00:36:22;0.20;;;0.20;;
26654;SDS011;14278;50.784;4.630;2022-10-16T00:38:52;0.67;;;0.50;;
26654;SDS011;14278;50.784;4.630;2022-10-16T00:41:19;0.30;;;0.30;;
26654;SDS011;14278;50.784;4.630;2022-10-16T00:43:54;0.27;;;0.27;;
26654;SDS011;14278;50.784;4.630;2022-10-16T00:51:35;0.27;;;0.27;;
26654;SDS011;14278;50.784;4.630;2022-10-16T00:54:09;1.53;;;0.57;;
26654;SDS011;14278;50.784;4.630;2022-10-16T00:56:48;0.30;;;0.30;;
26654;SDS011;14278;50.784;4.630;2022-10-16T00:59:16;0.40;;;0.40;;
26654;SDS011;14278;50.784;4.630;2022-10-16T01:01:45;1.03;;;0.30;;
26654;SDS011;14278;50.784;4.630;2022-10-16T01:04:11;0.50;;;0.50;;
26654;SDS011;14278;50.784;4.630;2022-10-16T01:06:50;0.30;;;0.30;;
26654;SDS011;14278;50.784;4.630;2022-10-16T01:28:50;0.23;;;0.23;;
26654;SDS011;14278;50.784;4.630;2022-10-16T01:31:24;0.63;;;0.63;;
26654;SDS011;14278;50.784;4.630;2022-10-16T01:36:49;0.60;;;0.60;;
26654;SDS011;14278;50.784;4.630;2022-10-16T01:39:21;0.40;;;0.40;;
26654;SDS011;14278;50.784;4.630;2022-10-16T01:42:13;0.37;;;0.37;;
26654;SDS011;14278;50.784;4.630;2022-10-16T01:44:37;0.50;;;0.50;;
26654;SDS011;14278;50.784;4.630;2022-10-16T01:47:05;1.33;;;0.80;;
26654;SDS011;14278;50.784;4.630;2022-10-16T01:49:33;1.40;;;0.43;;
26654;SDS011;14278;50.784;4.630;2022-10-16T01:52:02;0.53;;;0.50;;
26654;SDS011;14278;50.784;4.630;2022-10-16T01:54:33;0.30;;;0.30;;
26654;SDS011;14278;50.784;4.630;2022-10-16T01:57:01;0.50;;;0.50;;
26654;SDS011;14278;50.784;4.630;2022-10-16T01:59:32;0.40;;;0.40;;
26654;SDS011;14278;50.784;4.630;2022-10-16T02:02:03;1.60;;;0.40;;
26654;SDS011;14278;50.784;4.630;2022-10-16T02:04:34;0.37;;;0.37;;
26654;SDS011;14278;50.784;4.630;2022-10-16T02:07:04;0.30;;;0.30;;
26654;SDS011;14278;50.784;4.630;2022-10-16T02:09:34;0.60;;;0.60;;
26654;SDS011;14278;50.784;4.630;2022-10-16T02:12:03;0.40;;;0.40;;
26654;SDS011;14278;50.784;4.630;2022-10-16T02:14:36;0.43;;;0.43;;
26654;SDS011;14278;50.784;4.630;2022-10-16T02:17:10;2.03;;;0.60;;
26654;SDS011;14278;50.784;4.630;2022-10-16T02:19:41;0.50;;;0.47;;
26654;SDS011;14278;50.784;4.630;2022-10-16T02:22:10;1.50;;;0.53;;
26654;SDS011;14278;50.784;4.630;2022-10-16T02:27:43;0.60;;;0.57;;
26654;SDS011;14278;50.784;4.630;2022-10-16T02:30:21;0.43;;;0.43;;
26654;SDS011;14278;50.784;4.630;2022-10-16T02:32:52;0.40;;;0.40;;
26654;SDS011;14278;50.784;4.630;2022-10-16T02:35:19;0.30;;;0.30;;
26654;SDS011;14278;50.784;4.630;2022-10-16T02:37:48;0.87;;;0.60;;
26654;SDS011;14278;50.784;4.630;2022-10-16T02:40:15;0.63;;;0.50;;
26654;SDS011;14278;50.784;4.630;2022-10-16T02:42:42;0.57;;;0.57;;
26654;SDS011;14278;50.784;4.630;2022-10-16T02:45:09;0.47;;;0.47;;
26654;SDS011;14278;50.784;4.630;2022-10-16T02:47:36;0.30;;;0.30;;
26654;SDS011;14278;50.784;4.630;2022-10-16T02:50:02;0.77;;;0.77;;
26654;SDS011;14278;50.784;4.630;2022-10-16T02:52:29;0.50;;;0.50;;
26654;SDS011;14278;50.784;4.630;2022-10-16T02:54:55;0.57;;;0.57;;
26654;SDS011;14278;50.784;4.630;2022-10-16T02:57:20;0.40;;;0.40;;
26654;SDS011;14278;50.784;4.630;2022-10-16T02:59:46;0.63;;;0.63;;
26654;SDS011;14278;50.784;4.630;2022-10-16T03:02:12;0.60;;;0.60;;
26654;SDS011;14278;50.784;4.630;2022-10-16T03:04:38;0.50;;;0.50;;
26654;SDS011;14278;50.784;4.630;2022-10-16T03:07:04;2.83;;;0.67;;
26654;SDS011;14278;50.784;4.630;2022-10-16T03:09:30;0.40;;;0.40;;
26654;SDS011;14278;50.784;4.630;2022-10-16T03:11:55;0.57;;;0.47;;
26654;SDS011;14278;50.784;4.630;2022-10-16T03:14:22;1.17;;;0.60;;
26654;SDS011;14278;50.784;4.630;2022-10-16T03:16:47;1.07;;;0.97;;
26654;SDS011;14278;50.784;4.630;2022-10-16T03:19:13;0.93;;;0.77;;
26654;SDS011;14278;50.784;4.630;2022-10-16T03:21:40;0.60;;;0.60;;
26654;SDS011;14278;50.784;4.630;2022-10-16T03:24:06;0.77;;;0.50;;
26654;SDS011;14278;50.784;4.630;2022-10-16T03:26:32;0.60;;;0.50;;
26654;SDS011;14278;50.784;4.630;2022-10-16T03:28:58;0.60;;;0.60;;
26654;SDS011;14278;50.784;4.630;2022-10-16T03:31:24;0.50;;;0.50;;
26654;SDS011;14278;50.784;4.630;2022-10-16T03:33:49;0.30;;;0.30;;
26654;SDS011;14278;50.784;4.630;2022-10-16T03:36:15;0.50;;;0.50;;
26654;SDS011;14278;50.784;4.630;2022-10-16T03:38:41;1.83;;;0.73;;
26654;SDS011;14278;50.784;4.630;2022-10-16T03:41:07;0.73;;;0.60;;
26654;SDS011;14278;50.784;4.630;2022-10-16T03:43:33;0.57;;;0.57;;
26654;SDS011;14278;50.784;4.630;2022-10-16T03:45:59;0.60;;;0.60;;
26654;SDS011;14278;50.784;4.630;2022-10-16T03:48:25;0.60;;;0.60;;
26654;SDS011;14278;50.784;4.630;2022-10-16T03:50:51;0.63;;;0.63;;
26654;SDS011;14278;50.784;4.630;2022-10-16T03:53:17;0.87;;;0.57;;
26654;SDS011;14278;50.784;4.630;2022-10-16T03:55:43;4.13;;;0.93;;
26654;SDS011;14278;50.784;4.630;2022-10-16T03:58:09;0.43;;;0.43;;
26654;SDS011;14278;50.784;4.630;2022-10-16T04:00:35;0.60;;;0.60;;
26654;SDS011;14278;50.784;4.630;2022-10-16T04:03:05;0.40;;;0.40;;
26654;SDS011;14278;50.784;4.630;2022-10-16T04:05:31;0.77;;;0.67;;
26654;SDS011;14278;50.784;4.630;2022-10-16T04:07:57;0.43;;;0.43;;
26654;SDS011;14278;50.784;4.630;2022-10-16T04:10:23;0.53;;;0.53;;
26654;SDS011;14278;50.784;4.630;2022-10-16T04:12:48;0.57;;;0.57;;
26654;SDS011;14278;50.784;4.630;2022-10-16T04:15:15;0.97;;;0.70;;
26654;SDS011;14278;50.784;4.630;2022-10-16T04:17:40;0.57;;;0.53;;
26654;SDS011;14278;50.784;4.630;2022-10-16T04:20:06;0.50;;;0.50;;
26654;SDS011;14278;50.784;4.630;2022-10-16T04:22:32;0.50;;;0.50;;
26654;SDS011;14278;50.784;4.630;2022-10-16T04:24:58;0.67;;;0.60;;
26654;SDS011;14278;50.784;4.630;2022-10-16T04:27:24;0.77;;;0.70;;
26654;SDS011;14278;50.784;4.630;2022-10-16T04:29:50;0.87;;;0.80;;
26654;SDS011;14278;50.784;4.630;2022-10-16T04:32:16;1.03;;;0.63;;
26654;SDS011;14278;50.784;4.630;2022-10-16T04:34:42;0.60;;;0.60;;
26654;SDS011;14278;50.784;4.630;2022-10-16T04:37:07;0.57;;;0.57;;
26654;SDS011;14278;50.784;4.630;2022-10-16T04:39:34;1.17;;;1.07;;
26654;SDS011;14278;50.784;4.630;2022-10-16T04:41:59;0.73;;;0.73;;
26654;SDS011;14278;50.784;4.630;2022-10-16T04:44:25;0.80;;;0.60;;
26654;SDS011;14278;50.784;4.630;2022-10-16T04:46:51;0.73;;;0.73;;
26654;SDS011;14278;50.784;4.630;2022-10-16T04:49:17;0.70;;;0.70;;
26654;SDS011;14278;50.784;4.630;2022-10-16T04:51:43;2.23;;;0.73;;
26654;SDS011;14278;50.784;4.630;2022-10-16T04:54:09;0.97;;;0.87;;
26654;SDS011;14278;50.784;4.630;2022-10-16T04:56:35;1.00;;;0.80;;
26654;SDS011;14278;50.784;4.630;2022-10-16T04:59:08;1.03;;;0.67;;
26654;SDS011;14278;50.784;4.630;2022-10-16T05:01:34;0.77;;;0.67;;
26654;SDS011;14278;50.784;4.630;2022-10-16T05:04:01;1.03;;;0.80;;
26654;SDS011;14278;50.784;4.630;2022-10-16T05:06:26;0.53;;;0.53;;
26654;SDS011;14278;50.784;4.630;2022-10-16T05:08:52;0.73;;;0.70;;
26654;SDS011;14278;50.784;4.630;2022-10-16T05:11:18;0.70;;;0.70;;
26654;SDS011;14278;50.784;4.630;2022-10-16T05:13:44;0.80;;;0.80;;
26654;SDS011;14278;50.784;4.630;2022-10-16T05:16:10;0.67;;;0.67;;
26654;SDS011;14278;50.784;4.630;2022-10-16T05:18:36;0.80;;;0.70;;
26654;SDS011;14278;50.784;4.630;2022-10-16T05:21:01;2.40;;;0.90;;
26654;SDS011;14278;50.784;4.630;2022-10-16T05:23:27;3.90;;;1.43;;
26654;SDS011;14278;50.784;4.630;2022-10-16T05:25:54;0.80;;;0.80;;
26654;SDS011;14278;50.784;4.630;2022-10-16T05:28:24;1.33;;;1.00;;
26654;SDS011;14278;50.784;4.630;2022-10-16T05:30:53;2.00;;;0.90;;
26654;SDS011;14278;50.784;4.630;2022-10-16T05:33:20;1.20;;;0.73;;
26654;SDS011;14278;50.784;4.630;2022-10-16T05:35:46;0.80;;;0.60;;
26654;SDS011;14278;50.784;4.630;2022-10-16T05:38:12;0.70;;;0.70;;
26654;SDS011;14278;50.784;4.630;2022-10-16T05:40:38;0.60;;;0.60;;
26654;SDS011;14278;50.784;4.630;2022-10-16T05:43:04;1.00;;;0.87;;
26654;SDS011;14278;50.784;4.630;2022-10-16T05:45:30;0.77;;;0.77;;
26654;SDS011;14278;50.784;4.630;2022-10-16T05:47:56;0.60;;;0.60;;
26654;SDS011;14278;50.784;4.630;2022-10-16T05:50:21;0.73;;;0.70;;
26654;SDS011;14278;50.784;4.630;2022-10-16T05:52:48;1.00;;;0.80;;
26654;SDS011;14278;50.784;4.630;2022-10-16T05:55:13;0.40;;;0.40;;
26654;SDS011;14278;50.784;4.630;2022-10-16T05:57:39;1.00;;;0.90;;
26654;SDS011;14278;50.784;4.630;2022-10-16T06:00:05;0.53;;;0.53;;
26654;SDS011;14278;50.784;4.630;2022-10-16T06:02:31;0.73;;;0.57;;
26654;SDS011;14278;50.784;4.630;2022-10-16T06:04:57;1.90;;;0.87;;
26654;SDS011;14278;50.784;4.630;2022-10-16T06:07:23;0.70;;;0.70;;
26654;SDS011;14278;50.784;4.630;2022-10-16T06:09:49;0.60;;;0.60;;
26654;SDS011;14278;50.784;4.630;2022-10-16T06:12:16;3.83;;;1.10;;
26654;SDS011;14278;50.784;4.630;2022-10-16T06:14:42;1.10;;;1.00;;
26654;SDS011;14278;50.784;4.630;2022-10-16T06:17:08;3.33;;;1.07;;
26654;SDS011;14278;50.784;4.630;2022-10-16T06:19:34;0.90;;;0.90;;
26654;SDS011;14278;50.784;4.630;2022-10-16T06:22:00;1.57;;;1.20;;
26654;SDS011;14278;50.784;4.630;2022-10-16T06:24:27;1.00;;;0.73;;
26654;SDS011;14278;50.784;4.630;2022-10-16T06:26:53;0.90;;;0.90;;
26654;SDS011;14278;50.784;4.630;2022-10-16T06:29:19;1.00;;;1.00;;
26654;SDS011;14278;50.784;4.630;2022-10-16T06:31:45;1.60;;;0.90;;
26654;SDS011;14278;50.784;4.630;2022-10-16T06:34:11;0.83;;;0.83;;
26654;SDS011;14278;50.784;4.630;2022-10-16T06:36:37;0.63;;;0.63;;
26654;SDS011;14278;50.784;4.630;2022-10-16T06:39:04;1.00;;;0.90;;
26654;SDS011;14278;50.784;4.630;2022-10-16T06:41:33;0.83;;;0.80;;
26654;SDS011;14278;50.784;4.630;2022-10-16T06:43:59;1.23;;;1.13;;
26654;SDS011;14278;50.784;4.630;2022-10-16T06:46:25;0.87;;;0.77;;
26654;SDS011;14278;50.784;4.630;2022-10-16T06:48:52;1.60;;;0.90;;
26654;SDS011;14278;50.784;4.630;2022-10-16T06:51:21;2.13;;;1.30;;
26654;SDS011;14278;50.784;4.630;2022-10-16T06:53:49;1.00;;;0.83;;
26654;SDS011;14278;50.784;4.630;2022-10-16T06:56:18;1.50;;;1.30;;
26654;SDS011;14278;50.784;4.630;2022-10-16T06:58:46;1.27;;;1.17;;
26654;SDS011;14278;50.784;4.630;2022-10-16T07:01:13;1.40;;;1.30;;
26654;SDS011;14278;50.784;4.630;2022-10-16T07:03:40;1.00;;;0.93;;
26654;SDS011;14278;50.784;4.630;2022-10-16T07:06:08;2.43;;;1.10;;
26654;SDS011;14278;50.784;4.630;2022-10-16T07:08:35;0.73;;;0.73;;
26654;SDS011;14278;50.784;4.630;2022-10-16T07:11:06;1.20;;;1.10;;
26654;SDS011;14278;50.784;4.630;2022-10-16T07:13:34;1.13;;;0.93;;
26654;SDS011;14278;50.784;4.630;2022-10-16T07:16:04;0.90;;;0.90;;
26654;SDS011;14278;50.784;4.630;2022-10-16T07:18:32;2.37;;;1.30;;
26654;SDS011;14278;50.784;4.630;2022-10-16T07:21:08;1.17;;;1.07;;
26654;SDS011;14278;50.784;4.630;2022-10-16T07:23:45;1.07;;;1.07;;
26654;SDS011;14278;50.784;4.630;2022-10-16T07:26:14;1.03;;;1.03;;
26654;SDS011;14278;50.784;4.630;2022-10-16T07:28:40;0.93;;;0.93;;
26654;SDS011;14278;50.784;4.630;2022-10-16T07:31:09;1.37;;;1.27;;
26654;SDS011;14278;50.784;4.630;2022-10-16T07:33:38;1.30;;;1.13;;
26654;SDS011;14278;50.784;4.630;2022-10-16T07:36:07;2.47;;;1.30;;
26654;SDS011;14278;50.784;4.630;2022-10-16T07:38:33;0.70;;;0.70;;
26654;SDS011;14278;50.784;4.630;2022-10-16T07:40:59;1.27;;;1.00;;
26654;SDS011;14278;50.784;4.630;2022-10-16T07:43:27;0.83;;;0.83;;
26654;SDS011;14278;50.784;4.630;2022-10-16T07:45:53;1.80;;;1.00;;
26654;SDS011;14278;50.784;4.630;2022-10-16T07:48:20;1.00;;;1.00;;
26654;SDS011;14278;50.784;4.630;2022-10-16T07:50:46;1.20;;;1.10;;
26654;SDS011;14278;50.784;4.630;2022-10-16T07:53:12;1.07;;;0.90;;
26654;SDS011;14278;50.784;4.630;2022-10-16T07:55:39;0.80;;;0.80;;
26654;SDS011;14278;50.784;4.630;2022-10-16T07:58:05;1.37;;;1.27;;
26654;SDS011;14278;50.784;4.630;2022-10-16T08:00:31;0.87;;;0.87;;
26654;SDS011;14278;50.784;4.630;2022-10-16T08:02:57;0.73;;;0.73;;
26654;SDS011;14278;50.784;4.630;2022-10-16T08:05:29;0.90;;;0.90;;
26654;SDS011;14278;50.784;4.630;2022-10-16T08:07:57;0.80;;;0.80;;
26654;SDS011;14278;50.784;4.630;2022-10-16T08:10:24;1.30;;;1.20;;
26654;SDS011;14278;50.784;4.630;2022-10-16T08:12:52;2.07;;;1.33;;
26654;SDS011;14278;50.784;4.630;2022-10-16T08:15:18;1.40;;;0.90;;
26654;SDS011;14278;50.784;4.630;2022-10-16T08:17:53;1.00;;;0.90;;
26654;SDS011;14278;50.784;4.630;2022-10-16T08:20:21;0.90;;;0.90;;
26654;SDS011;14278;50.784;4.630;2022-10-16T08:22:46;0.90;;;0.90;;
26654;SDS011;14278;50.784;4.630;2022-10-16T08:25:12;0.97;;;0.97;;
26654;SDS011;14278;50.784;4.630;2022-10-16T08:27:38;0.97;;;0.90;;
26654;SDS011;14278;50.784;4.630;2022-10-16T08:30:04;0.83;;;0.83;;
26654;SDS011;14278;50.784;4.630;2022-10-16T08:32:30;1.13;;;1.03;;
26654;SDS011;14278;50.784;4.630;2022-10-16T08:34:57;1.40;;;1.03;;
26654;SDS011;14278;50.784;4.630;2022-10-16T08:37:22;0.60;;;0.60;;
26654;SDS011;14278;50.784;4.630;2022-10-16T08:39:48;2.47;;;0.97;;
26654;SDS011;14278;50.784;4.630;2022-10-16T08:48:00;1.23;;;0.80;;
26654;SDS011;14278;50.784;4.630;2022-10-16T08:50:31;0.67;;;0.60;;
26654;SDS011;14278;50.784;4.630;2022-10-16T08:53:01;0.90;;;0.80;;
26654;SDS011;14278;50.784;4.630;2022-10-16T08:55:46;2.27;;;1.07;;
26654;SDS011;14278;50.784;4.630;2022-10-16T08:58:22;0.70;;;0.70;;
26654;SDS011;14278;50.784;4.630;2022-10-16T09:01:11;0.60;;;0.53;;
26654;SDS011;14278;50.784;4.630;2022-10-16T09:06:20;0.90;;;0.67;;
26654;SDS011;14278;50.784;4.630;2022-10-16T09:20:12;0.70;;;0.70;;
26654;SDS011;14278;50.784;4.630;2022-10-16T09:22:42;0.93;;;0.40;;
26654;SDS011;14278;50.784;4.630;2022-10-16T09:25:12;0.50;;;0.50;;
26654;SDS011;14278;50.784;4.630;2022-10-16T09:27:40;1.63;;;0.40;;
26654;SDS011;14278;50.784;4.630;2022-10-16T09:30:14;0.77;;;0.60;;
26654;SDS011;14278;50.784;4.630;2022-10-16T09:32:42;0.43;;;0.43;;
26654;SDS011;14278;50.784;4.630;2022-10-16T09:37:57;0.70;;;0.53;;
26654;SDS011;14278;50.784;4.630;2022-10-16T09:40:41;0.37;;;0.37;;
26654;SDS011;14278;50.784;4.630;2022-10-16T09:51:16;3.93;;;0.67;;
26654;SDS011;14278;50.784;4.630;2022-10-16T09:54:01;0.80;;;0.63;;
26654;SDS011;14278;50.784;4.630;2022-10-16T09:56:38;0.33;;;0.33;;
26654;SDS011;14278;50.784;4.630;2022-10-16T09:59:14;0.43;;;0.40;;
26654;SDS011;14278;50.784;4.630;2022-10-16T10:01:43;0.40;;;0.33;;
26654;SDS011;14278;50.784;4.630;2022-10-16T10:04:16;0.20;;;0.20;;
26654;SDS011;14278;50.784;4.630;2022-10-16T10:06:45;1.23;;;0.80;;
26654;SDS011;14278;50.784;4.630;2022-10-16T10:09:20;0.60;;;0.53;;
26654;SDS011;14278;50.784;4.630;2022-10-16T10:11:54;0.20;;;0.20;;
26654;SDS011;14278;50.784;4.630;2022-10-16T10:14:34;0.57;;;0.30;;
26654;SDS011;14278;50.784;4.630;2022-10-16T10:19:36;0.30;;;0.30;;
26654;SDS011;14278;50.784;4.630;2022-10-16T10:22:27;3.70;;;0.70;;
26654;SDS011;14278;50.784;4.630;2022-10-16T10:30:36;0.57;;;0.43;;
26654;SDS011;14278;50.784;4.630;2022-10-16T10:39:04;1.30;;;0.50;;
26654;SDS011;14278;50.784;4.630;2022-10-16T10:41:39;0.80;;;0.47;;
26654;SDS011;14278;50.784;4.630;2022-10-16T11:08:49;0.50;;;0.50;;
26654;SDS011;14278;50.784;4.630;2022-10-16T11:24:33;1.33;;;0.35;;
26654;SDS011;14278;50.784;4.630;2022-10-16T11:27:22;0.45;;;0.30;;
26654;SDS011;14278;50.784;4.630;2022-10-16T11:30:20;0.55;;;0.43;;
26654;SDS011;14278;50.784;4.630;2022-10-16T11:32:52;0.52;;;0.50;;
26654;SDS011;14278;50.784;4.630;2022-10-16T11:35:19;0.40;;;0.38;;
26654;SDS011;14278;50.784;4.630;2022-10-16T11:37:50;0.43;;;0.43;;
26654;SDS011;14278;50.784;4.630;2022-10-16T11:43:02;0.40;;;0.30;;
26654;SDS011;14278;50.784;4.630;2022-10-16T11:45:57;1.73;;;0.60;;
26654;SDS011;14278;50.784;4.630;2022-10-16T11:48:31;0.32;;;0.32;;
26654;SDS011;14278;50.784;4.630;2022-10-16T11:53:53;0.35;;;0.35;;
26654;SDS011;14278;50.784;4.630;2022-10-16T11:56:32;0.47;;;0.30;;
26654;SDS011;14278;50.784;4.630;2022-10-16T11:59:06;0.90;;;0.40;;
26654;SDS011;14278;50.784;4.630;2022-10-16T12:07:11;0.22;;;0.22;;
26654;SDS011;14278;50.784;4.630;2022-10-16T12:09:41;0.35;;;0.30;;
26654;SDS011;14278;50.784;4.630;2022-10-16T12:12:24;0.75;;;0.50;;
26654;SDS011;14278;50.784;4.630;2022-10-16T12:17:50;0.30;;;0.30;;
26654;SDS011;14278;50.784;4.630;2022-10-16T12:22:50;0.32;;;0.32;;
26654;SDS011;14278;50.784;4.630;2022-10-16T12:25:23;0.98;;;0.52;;
26654;SDS011;14278;50.784;4.630;2022-10-16T12:28:04;0.60;;;0.47;;
26654;SDS011;14278;50.784;4.630;2022-10-16T12:30:41;0.38;;;0.38;;
26654;SDS011;14278;50.784;4.630;2022-10-16T12:33:19;0.43;;;0.40;;
26654;SDS011;14278;50.784;4.630;2022-10-16T12:36:07;0.30;;;0.30;;
26654;SDS011;14278;50.784;4.630;2022-10-16T12:38:47;1.05;;;0.40;;
26654;SDS011;14278;50.784;4.630;2022-10-16T12:41:24;2.35;;;0.32;;
26654;SDS011;14278;50.784;4.630;2022-10-16T12:43:50;1.58;;;0.47;;
26654;SDS011;14278;50.784;4.630;2022-10-16T12:48:43;0.35;;;0.35;;
26654;SDS011;14278;50.784;4.630;2022-10-16T12:51:12;0.20;;;0.20;;
26654;SDS011;14278;50.784;4.630;2022-10-16T12:54:00;0.15;;;0.13;;
26654;SDS011;14278;50.784;4.630;2022-10-16T12:56:38;0.55;;;0.55;;
26654;SDS011;14278;50.784;4.630;2022-10-16T12:59:21;0.82;;;0.40;;
26654;SDS011;14278;50.784;4.630;2022-10-16T13:07:29;0.52;;;0.52;;
26654;SDS011;14278;50.784;4.630;2022-10-16T13:21:54;0.73;;;0.55;;
26654;SDS011;14278;50.784;4.630;2022-10-16T13:24:48;0.38;;;0.38;;
26654;SDS011;14278;50.784;4.630;2022-10-16T13:27:23;2.08;;;0.40;;
26654;SDS011;14278;50.784;4.630;2022-10-16T13:30:21;1.13;;;0.70;;
26654;SDS011;14278;50.784;4.630;2022-10-16T13:32:49;1.08;;;0.45;;
26654;SDS011;14278;50.784;4.630;2022-10-16T13:35:23;0.82;;;0.50;;
26654;SDS011;14278;50.784;4.630;2022-10-16T13:38:02;1.58;;;0.40;;
26654;SDS011;14278;50.784;4.630;2022-10-16T13:41:01;2.85;;;0.55;;
26654;SDS011;14278;50.784;4.630;2022-10-16T13:43:37;0.40;;;0.40;;
26654;SDS011;14278;50.784;4.630;2022-10-16T13:46:11;0.40;;;0.40;;
26654;SDS011;14278;50.784;4.630;2022-10-16T13:48:39;0.25;;;0.25;;
26654;SDS011;14278;50.784;4.630;2022-10-16T13:51:12;0.40;;;0.40;;
26654;SDS011;14278;50.784;4.630;2022-10-16T13:53:44;1.40;;;0.77;;
26654;SDS011;14278;50.784;4.630;2022-10-16T13:56:12;0.50;;;0.40;;
26654;SDS011;14278;50.784;4.630;2022-10-16T13:58:40;0.55;;;0.35;;
26654;SDS011;14278;50.784;4.630;2022-10-16T14:03:44;0.43;;;0.40;;
26654;SDS011;14278;50.784;4.630;2022-10-16T14:06:15;1.43;;;0.80;;
26654;SDS011;14278;50.784;4.630;2022-10-16T14:08:44;0.87;;;0.40;;
26654;SDS011;14278;50.784;4.630;2022-10-16T14:11:19;0.50;;;0.50;;
26654;SDS011;14278;50.784;4.630;2022-10-16T14:13:49;1.27;;;0.70;;
26654;SDS011;14278;50.784;4.630;2022-10-16T14:16:19;0.40;;;0.40;;
26654;SDS011;14278;50.784;4.630;2022-10-16T14:18:50;1.10;;;0.80;;
26654;SDS011;14278;50.784;4.630;2022-10-16T14:21:22;0.20;;;0.20;;
26654;SDS011;14278;50.784;4.630;2022-10-16T14:23:48;0.35;;;0.35;;
26654;SDS011;14278;50.784;4.630;2022-10-16T14:26:15;0.30;;;0.30;;
26654;SDS011;14278;50.784;4.630;2022-10-16T14:28:44;1.00;;;0.60;;
26654;SDS011;14278;50.784;4.630;2022-10-16T14:33:54;1.63;;;0.88;;
26654;SDS011;14278;50.784;4.630;2022-10-16T14:36:19;1.05;;;0.60;;
26654;SDS011;14278;50.784;4.630;2022-10-16T14:41:30;1.65;;;0.43;;
26654;SDS011;14278;50.784;4.630;2022-10-16T14:44:01;0.30;;;0.30;;
26654;SDS011;14278;50.784;4.630;2022-10-16T14:46:35;0.30;;;0.30;;
26654;SDS011;14278;50.784;4.630;2022-10-16T14:51:38;0.38;;;0.30;;
26654;SDS011;14278;50.784;4.630;2022-10-16T14:54:09;0.40;;;0.40;;
26654;SDS011;14278;50.784;4.630;2022-10-16T14:56:42;0.40;;;0.40;;
26654;SDS011;14278;50.784;4.630;2022-10-16T14:59:16;1.52;;;0.50;;
26654;SDS011;14278;50.784;4.630;2022-10-16T15:04:53;0.40;;;0.40;;
26654;SDS011;14278;50.784;4.630;2022-10-16T15:07:19;0.53;;;0.43;;
26654;SDS011;14278;50.784;4.630;2022-10-16T15:09:46;0.20;;;0.20;;
26654;SDS011;14278;50.784;4.630;2022-10-16T15:12:11;1.50;;;0.40;;
26654;SDS011;14278;50.784;4.630;2022-10-16T15:14:37;0.43;;;0.23;;
26654;SDS011;14278;50.784;4.630;2022-10-16T15:17:03;0.53;;;0.50;;
26654;SDS011;14278;50.784;4.630;2022-10-16T15:19:29;0.28;;;0.28;;
26654;SDS011;14278;50.784;4.630;2022-10-16T15:21:56;0.55;;;0.50;;
26654;SDS011;14278;50.784;4.630;2022-10-16T15:24:22;1.83;;;0.50;;
26654;SDS011;14278;50.784;4.630;2022-10-16T15:26:47;0.20;;;0.20;;
26654;SDS011;14278;50.784;4.630;2022-10-16T15:29:16;0.43;;;0.40;;
26654;SDS011;14278;50.784;4.630;2022-10-16T15:31:42;1.00;;;0.65;;
26654;SDS011;14278;50.784;4.630;2022-10-16T15:34:11;1.45;;;0.43;;
26654;SDS011;14278;50.784;4.630;2022-10-16T15:36:38;1.13;;;0.50;;
26654;SDS011;14278;50.784;4.630;2022-10-16T15:39:05;0.35;;;0.35;;
26654;SDS011;14278;50.784;4.630;2022-10-16T15:41:36;0.37;;;0.37;;
26654;SDS011;14278;50.784;4.630;2022-10-16T15:44:02;0.52;;;0.40;;
26654;SDS011;14278;50.784;4.630;2022-10-16T15:46:29;0.50;;;0.50;;
26654;SDS011;14278;50.784;4.630;2022-10-16T15:48:57;0.40;;;0.40;;
26654;SDS011;14278;50.784;4.630;2022-10-16T15:51:23;0.57;;;0.50;;
26654;SDS011;14278;50.784;4.630;2022-10-16T15:53:50;0.50;;;0.50;;
26654;SDS011;14278;50.784;4.630;2022-10-16T15:56:16;0.77;;;0.60;;
26654;SDS011;14278;50.784;4.630;2022-10-16T15:58:43;0.40;;;0.40;;
26654;SDS011;14278;50.784;4.630;2022-10-16T16:01:09;4.67;;;0.67;;
26654;SDS011;14278;50.784;4.630;2022-10-16T16:03:36;0.53;;;0.53;;
26654;SDS011;14278;50.784;4.630;2022-10-16T16:06:09;0.40;;;0.40;;
26654;SDS011;14278;50.784;4.630;2022-10-16T16:08:36;0.60;;;0.60;;
26654;SDS011;14278;50.784;4.630;2022-10-16T16:11:09;0.50;;;0.50;;
26654;SDS011;14278;50.784;4.630;2022-10-16T16:13:36;0.40;;;0.40;;
26654;SDS011;14278;50.784;4.630;2022-10-16T16:16:07;0.80;;;0.60;;
26654;SDS011;14278;50.784;4.630;2022-10-16T16:18:34;1.70;;;0.97;;
26654;SDS011;14278;50.784;4.630;2022-10-16T16:21:01;1.43;;;0.70;;
26654;SDS011;14278;50.784;4.630;2022-10-16T16:23:27;1.77;;;0.50;;
26654;SDS011;14278;50.784;4.630;2022-10-16T16:28:39;1.17;;;0.60;;
26654;SDS011;14278;50.784;4.630;2022-10-16T16:31:06;0.70;;;0.70;;
26654;SDS011;14278;50.784;4.630;2022-10-16T16:33:33;1.30;;;1.20;;
26654;SDS011;14278;50.784;4.630;2022-10-16T16:36:00;0.67;;;0.63;;
26654;SDS011;14278;50.784;4.630;2022-10-16T16:38:28;1.00;;;0.57;;
26654;SDS011;14278;50.784;4.630;2022-10-16T16:40:55;1.20;;;1.10;;
26654;SDS011;14278;50.784;4.630;2022-10-16T16:43:25;0.80;;;0.80;;
26654;SDS011;14278;50.784;4.630;2022-10-16T16:45:52;0.77;;;0.77;;
26654;SDS011;14278;50.784;4.630;2022-10-16T16:48:19;5.00;;;1.53;;
26654;SDS011;14278;50.784;4.630;2022-10-16T16:50:47;1.50;;;1.40;;
26654;SDS011;14278;50.784;4.630;2022-10-16T16:53:13;1.90;;;1.73;;
26654;SDS011;14278;50.784;4.630;2022-10-16T16:55:39;1.73;;;1.63;;
26654;SDS011;14278;50.784;4.630;2022-10-16T16:58:05;2.10;;;1.90;;
26654;SDS011;14278;50.784;4.630;2022-10-16T17:00:31;1.40;;;1.30;;
26654;SDS011;14278;50.784;4.630;2022-10-16T17:02:57;1.97;;;1.43;;
26654;SDS011;14278;50.784;4.630;2022-10-16T17:05:23;5.20;;;2.23;;
26654;SDS011;14278;50.784;4.630;2022-10-16T17:07:49;1.70;;;1.60;;
26654;SDS011;14278;50.784;4.630;2022-10-16T17:10:14;4.00;;;1.03;;
26654;SDS011;14278;50.784;4.630;2022-10-16T17:12:41;0.80;;;0.80;;
26654;SDS011;14278;50.784;4.630;2022-10-16T17:15:06;2.17;;;1.10;;
26654;SDS011;14278;50.784;4.630;2022-10-16T17:17:33;1.33;;;0.83;;
26654;SDS011;14278;50.784;4.630;2022-10-16T17:19:58;2.37;;;1.07;;
26654;SDS011;14278;50.784;4.630;2022-10-16T17:22:24;1.03;;;1.00;;
26654;SDS011;14278;50.784;4.630;2022-10-16T17:24:50;2.40;;;1.27;;
26654;SDS011;14278;50.784;4.630;2022-10-16T17:27:18;1.10;;;1.00;;
26654;SDS011;14278;50.784;4.630;2022-10-16T17:29:44;1.20;;;1.10;;
26654;SDS011;14278;50.784;4.630;2022-10-16T17:32:10;0.73;;;0.73;;
26654;SDS011;14278;50.784;4.630;2022-10-16T17:34:36;1.50;;;1.13;;
26654;SDS011;14278;50.784;4.630;2022-10-16T17:37:02;1.47;;;1.20;;
26654;SDS011;14278;50.784;4.630;2022-10-16T17:39:28;1.30;;;1.20;;
26654;SDS011;14278;50.784;4.630;2022-10-16T17:41:54;33.23;;;14.70;;
26654;SDS011;14278;50.784;4.630;2022-10-16T17:44:20;34.23;;;15.30;;
26654;SDS011;14278;50.784;4.630;2022-10-16T17:46:47;22.50;;;10.90;;